sensor_id;sensor_type;location;lat;lon;timestamp;P1;durP1;ratioP1;P2;durP2;ratioP2
67556;SDS011;54387;53.526;49.300;2022-08-20T00:00:57;9.10;;;3.25;;
67556;SDS011;54387;53.526;49.300;2022-08-20T00:03:32;4.78;;;3.03;;
67556;SDS011;54387;53.526;49.300;2022-08-20T00:08:40;8.55;;;3.13;;
67556;SDS011;54387;53.526;49.300;2022-08-20T00:11:15;9.77;;;3.28;;
67556;SDS011;54387;53.526;49.300;2022-08-20T00:13:55;4.03;;;2.65;;
67556;SDS011;54387;53.526;49.300;2022-08-20T00:16:29;6.90;;;2.75;;
67556;SDS011;54387;53.526;49.300;2022-08-20T00:19:06;8.38;;;2.95;;
67556;SDS011;54387;53.526;49.300;2022-08-20T00:21:38;8.80;;;2.77;;
67556;SDS011;54387;53.526;49.300;2022-08-20T00:24:10;5.75;;;2.80;;
67556;SDS011;54387;53.526;49.300;2022-08-20T00:26:41;11.45;;;3.28;;
67556;SDS011;54387;53.526;49.300;2022-08-20T00:29:12;8.15;;;2.90;;
67556;SDS011;54387;53.526;49.300;2022-08-20T00:31:45;8.73;;;2.97;;
67556;SDS011;54387;53.526;49.300;2022-08-20T00:34:17;6.13;;;2.92;;
67556;SDS011;54387;53.526;49.300;2022-08-20T00:36:49;8.73;;;2.78;;
67556;SDS011;54387;53.526;49.300;2022-08-20T00:39:20;7.05;;;2.40;;
67556;SDS011;54387;53.526;49.300;2022-08-20T00:41:51;6.63;;;2.60;;
67556;SDS011;54387;53.526;49.300;2022-08-20T00:44:23;6.93;;;2.42;;
67556;SDS011;54387;53.526;49.300;2022-08-20T00:46:55;8.50;;;2.65;;
67556;SDS011;54387;53.526;49.300;2022-08-20T00:49:27;11.00;;;2.65;;
67556;SDS011;54387;53.526;49.300;2022-08-20T00:52:07;7.93;;;3.20;;
67556;SDS011;54387;53.526;49.300;2022-08-20T00:54:44;6.45;;;3.00;;
67556;SDS011;54387;53.526;49.300;2022-08-20T00:57:35;7.43;;;2.92;;
67556;SDS011;54387;53.526;49.300;2022-08-20T01:00:11;6.97;;;2.72;;
67556;SDS011;54387;53.526;49.300;2022-08-20T01:02:49;5.63;;;2.45;;
67556;SDS011;54387;53.526;49.300;2022-08-20T01:05:21;6.88;;;2.92;;
67556;SDS011;54387;53.526;49.300;2022-08-20T01:07:53;12.30;;;2.65;;
67556;SDS011;54387;53.526;49.300;2022-08-20T01:10:26;8.90;;;3.13;;
67556;SDS011;54387;53.526;49.300;2022-08-20T01:13:03;6.40;;;3.00;;
67556;SDS011;54387;53.526;49.300;2022-08-20T01:15:41;10.35;;;3.15;;
67556;SDS011;54387;53.526;49.300;2022-08-20T01:18:16;8.35;;;2.50;;
67556;SDS011;54387;53.526;49.300;2022-08-20T01:20:59;5.95;;;2.75;;
67556;SDS011;54387;53.526;49.300;2022-08-20T01:23:51;10.50;;;2.75;;
67556;SDS011;54387;53.526;49.300;2022-08-20T01:26:25;4.65;;;2.90;;
67556;SDS011;54387;53.526;49.300;2022-08-20T01:29:03;6.22;;;2.58;;
67556;SDS011;54387;53.526;49.300;2022-08-20T01:31:42;6.90;;;2.38;;
67556;SDS011;54387;53.526;49.300;2022-08-20T01:34:15;6.00;;;2.90;;
67556;SDS011;54387;53.526;49.300;2022-08-20T01:36:50;8.45;;;2.58;;
67556;SDS011;54387;53.526;49.300;2022-08-20T01:39:28;8.25;;;2.80;;
67556;SDS011;54387;53.526;49.300;2022-08-20T01:44:33;6.32;;;2.80;;
67556;SDS011;54387;53.526;49.300;2022-08-20T01:47:09;5.53;;;2.88;;
67556;SDS011;54387;53.526;49.300;2022-08-20T01:49:56;7.57;;;2.80;;
67556;SDS011;54387;53.526;49.300;2022-08-20T01:55:39;7.43;;;3.00;;
67556;SDS011;54387;53.526;49.300;2022-08-20T01:58:11;7.28;;;2.90;;
67556;SDS011;54387;53.526;49.300;2022-08-20T02:00:43;4.40;;;2.50;;
67556;SDS011;54387;53.526;49.300;2022-08-20T02:03:14;8.30;;;2.65;;
67556;SDS011;54387;53.526;49.300;2022-08-20T02:05:46;6.38;;;2.20;;
67556;SDS011;54387;53.526;49.300;2022-08-20T02:08:18;4.18;;;2.42;;
67556;SDS011;54387;53.526;49.300;2022-08-20T02:10:51;5.72;;;2.65;;
67556;SDS011;54387;53.526;49.300;2022-08-20T02:13:22;11.02;;;2.88;;
67556;SDS011;54387;53.526;49.300;2022-08-20T02:15:54;5.88;;;2.63;;
67556;SDS011;54387;53.526;49.300;2022-08-20T02:18:25;4.95;;;2.60;;
67556;SDS011;54387;53.526;49.300;2022-08-20T02:20:57;6.43;;;2.45;;
67556;SDS011;54387;53.526;49.300;2022-08-20T02:23:29;5.25;;;2.25;;
67556;SDS011;54387;53.526;49.300;2022-08-20T02:26:01;8.23;;;2.63;;
67556;SDS011;54387;53.526;49.300;2022-08-20T02:28:32;6.70;;;2.65;;
67556;SDS011;54387;53.526;49.300;2022-08-20T02:31:04;5.88;;;2.60;;
67556;SDS011;54387;53.526;49.300;2022-08-20T02:33:38;5.82;;;2.22;;
67556;SDS011;54387;53.526;49.300;2022-08-20T02:36:10;4.75;;;2.35;;
67556;SDS011;54387;53.526;49.300;2022-08-20T02:38:42;6.05;;;2.85;;
67556;SDS011;54387;53.526;49.300;2022-08-20T02:41:16;4.28;;;2.55;;
67556;SDS011;54387;53.526;49.300;2022-08-20T02:43:52;5.78;;;2.03;;
67556;SDS011;54387;53.526;49.300;2022-08-20T02:46:23;8.65;;;2.60;;
67556;SDS011;54387;53.526;49.300;2022-08-20T02:48:56;9.40;;;2.78;;
67556;SDS011;54387;53.526;49.300;2022-08-20T02:51:28;7.15;;;3.25;;
67556;SDS011;54387;53.526;49.300;2022-08-20T02:54:00;12.77;;;2.70;;
67556;SDS011;54387;53.526;49.300;2022-08-20T02:56:31;18.05;;;2.60;;
67556;SDS011;54387;53.526;49.300;2022-08-20T02:59:03;5.78;;;2.30;;
67556;SDS011;54387;53.526;49.300;2022-08-20T03:01:34;3.75;;;2.47;;
67556;SDS011;54387;53.526;49.300;2022-08-20T03:04:07;9.52;;;2.72;;
67556;SDS011;54387;53.526;49.300;2022-08-20T03:06:38;7.10;;;2.80;;
67556;SDS011;54387;53.526;49.300;2022-08-20T03:09:10;9.25;;;3.00;;
67556;SDS011;54387;53.526;49.300;2022-08-20T03:11:41;7.63;;;2.58;;
67556;SDS011;54387;53.526;49.300;2022-08-20T03:14:13;3.97;;;2.33;;
67556;SDS011;54387;53.526;49.300;2022-08-20T03:16:44;6.75;;;2.15;;
67556;SDS011;54387;53.526;49.300;2022-08-20T03:19:16;5.82;;;2.60;;
67556;SDS011;54387;53.526;49.300;2022-08-20T03:21:47;9.18;;;2.63;;
67556;SDS011;54387;53.526;49.300;2022-08-20T03:24:19;6.95;;;2.78;;
67556;SDS011;54387;53.526;49.300;2022-08-20T03:26:50;3.80;;;2.17;;
67556;SDS011;54387;53.526;49.300;2022-08-20T03:29:22;6.35;;;2.33;;
67556;SDS011;54387;53.526;49.300;2022-08-20T03:31:53;6.78;;;2.70;;
67556;SDS011;54387;53.526;49.300;2022-08-20T03:34:25;9.77;;;2.80;;
67556;SDS011;54387;53.526;49.300;2022-08-20T03:36:56;7.70;;;2.33;;
67556;SDS011;54387;53.526;49.300;2022-08-20T03:39:27;6.00;;;2.58;;
67556;SDS011;54387;53.526;49.300;2022-08-20T03:41:59;7.78;;;2.70;;
67556;SDS011;54387;53.526;49.300;2022-08-20T03:44:30;5.15;;;2.30;;
67556;SDS011;54387;53.526;49.300;2022-08-20T03:47:03;6.65;;;2.60;;
67556;SDS011;54387;53.526;49.300;2022-08-20T03:49:37;8.98;;;2.70;;
67556;SDS011;54387;53.526;49.300;2022-08-20T03:52:08;8.32;;;2.22;;
67556;SDS011;54387;53.526;49.300;2022-08-20T03:54:40;3.70;;;2.25;;
67556;SDS011;54387;53.526;49.300;2022-08-20T03:57:12;7.03;;;2.78;;
67556;SDS011;54387;53.526;49.300;2022-08-20T03:59:44;4.57;;;2.20;;
67556;SDS011;54387;53.526;49.300;2022-08-20T04:02:16;5.45;;;2.50;;
67556;SDS011;54387;53.526;49.300;2022-08-20T04:04:48;7.47;;;2.40;;
67556;SDS011;54387;53.526;49.300;2022-08-20T04:07:21;10.50;;;2.70;;
67556;SDS011;54387;53.526;49.300;2022-08-20T04:09:57;11.02;;;2.80;;
67556;SDS011;54387;53.526;49.300;2022-08-20T04:12:29;6.35;;;2.67;;
67556;SDS011;54387;53.526;49.300;2022-08-20T04:15:00;7.40;;;2.50;;
67556;SDS011;54387;53.526;49.300;2022-08-20T04:17:32;7.07;;;2.10;;
67556;SDS011;54387;53.526;49.300;2022-08-20T04:20:04;5.38;;;2.78;;
67556;SDS011;54387;53.526;49.300;2022-08-20T04:22:36;4.53;;;2.53;;
67556;SDS011;54387;53.526;49.300;2022-08-20T04:25:08;6.10;;;2.50;;
67556;SDS011;54387;53.526;49.300;2022-08-20T04:27:40;7.70;;;2.55;;
67556;SDS011;54387;53.526;49.300;2022-08-20T04:30:12;6.10;;;2.13;;
67556;SDS011;54387;53.526;49.300;2022-08-20T04:32:44;4.10;;;1.98;;
67556;SDS011;54387;53.526;49.300;2022-08-20T04:35:15;9.88;;;2.78;;
67556;SDS011;54387;53.526;49.300;2022-08-20T04:37:48;5.03;;;2.22;;
67556;SDS011;54387;53.526;49.300;2022-08-20T04:40:27;6.72;;;2.00;;
67556;SDS011;54387;53.526;49.300;2022-08-20T04:43:18;6.40;;;2.88;;
67556;SDS011;54387;53.526;49.300;2022-08-20T04:45:52;7.55;;;2.33;;
67556;SDS011;54387;53.526;49.300;2022-08-20T04:48:27;6.35;;;2.10;;
67556;SDS011;54387;53.526;49.300;2022-08-20T04:50:59;4.38;;;2.08;;
67556;SDS011;54387;53.526;49.300;2022-08-20T04:53:32;3.80;;;2.28;;
67556;SDS011;54387;53.526;49.300;2022-08-20T04:56:04;7.03;;;2.03;;
67556;SDS011;54387;53.526;49.300;2022-08-20T04:58:37;6.00;;;1.90;;
67556;SDS011;54387;53.526;49.300;2022-08-20T05:01:10;6.45;;;2.53;;
67556;SDS011;54387;53.526;49.300;2022-08-20T05:03:41;4.18;;;2.20;;
67556;SDS011;54387;53.526;49.300;2022-08-20T05:06:13;6.25;;;2.65;;
67556;SDS011;54387;53.526;49.300;2022-08-20T05:11:18;9.02;;;2.42;;
67556;SDS011;54387;53.526;49.300;2022-08-20T05:13:51;3.70;;;1.83;;
67556;SDS011;54387;53.526;49.300;2022-08-20T05:16:23;5.03;;;1.88;;
67556;SDS011;54387;53.526;49.300;2022-08-20T05:18:54;3.55;;;2.08;;
67556;SDS011;54387;53.526;49.300;2022-08-20T05:21:26;5.90;;;1.80;;
67556;SDS011;54387;53.526;49.300;2022-08-20T05:23:57;5.90;;;1.90;;
67556;SDS011;54387;53.526;49.300;2022-08-20T05:26:29;6.28;;;1.80;;
67556;SDS011;54387;53.526;49.300;2022-08-20T05:29:03;4.80;;;1.50;;
67556;SDS011;54387;53.526;49.300;2022-08-20T05:31:36;3.17;;;1.95;;
67556;SDS011;54387;53.526;49.300;2022-08-20T05:34:09;4.07;;;1.60;;
67556;SDS011;54387;53.526;49.300;2022-08-20T05:36:42;3.78;;;1.55;;
67556;SDS011;54387;53.526;49.300;2022-08-20T05:39:17;2.38;;;1.88;;
67556;SDS011;54387;53.526;49.300;2022-08-20T05:41:50;5.30;;;2.33;;
67556;SDS011;54387;53.526;49.300;2022-08-20T05:44:21;4.85;;;1.50;;
67556;SDS011;54387;53.526;49.300;2022-08-20T05:46:53;3.58;;;1.92;;
67556;SDS011;54387;53.526;49.300;2022-08-20T05:49:25;4.57;;;1.67;;
67556;SDS011;54387;53.526;49.300;2022-08-20T05:51:56;7.53;;;2.15;;
67556;SDS011;54387;53.526;49.300;2022-08-20T05:54:28;4.57;;;1.60;;
67556;SDS011;54387;53.526;49.300;2022-08-20T05:57:00;4.28;;;1.80;;
67556;SDS011;54387;53.526;49.300;2022-08-20T05:59:32;4.25;;;2.00;;
67556;SDS011;54387;53.526;49.300;2022-08-20T06:02:06;5.47;;;1.90;;
67556;SDS011;54387;53.526;49.300;2022-08-20T06:04:57;6.25;;;1.75;;
67556;SDS011;54387;53.526;49.300;2022-08-20T06:07:29;9.95;;;2.35;;
67556;SDS011;54387;53.526;49.300;2022-08-20T06:10:00;6.55;;;2.50;;
67556;SDS011;54387;53.526;49.300;2022-08-20T06:12:32;6.72;;;2.40;;
67556;SDS011;54387;53.526;49.300;2022-08-20T06:15:04;15.10;;;2.47;;
67556;SDS011;54387;53.526;49.300;2022-08-20T06:17:37;6.40;;;2.20;;
67556;SDS011;54387;53.526;49.300;2022-08-20T06:20:09;7.97;;;2.63;;
67556;SDS011;54387;53.526;49.300;2022-08-20T06:22:41;7.47;;;2.30;;
67556;SDS011;54387;53.526;49.300;2022-08-20T06:25:13;5.85;;;2.30;;
67556;SDS011;54387;53.526;49.300;2022-08-20T06:27:45;9.27;;;3.20;;
67556;SDS011;54387;53.526;49.300;2022-08-20T06:30:16;4.75;;;2.50;;
67556;SDS011;54387;53.526;49.300;2022-08-20T06:32:48;5.97;;;2.33;;
67556;SDS011;54387;53.526;49.300;2022-08-20T06:35:20;12.05;;;3.88;;
67556;SDS011;54387;53.526;49.300;2022-08-20T06:37:51;15.30;;;3.40;;
67556;SDS011;54387;53.526;49.300;2022-08-20T06:40:24;5.55;;;2.60;;
67556;SDS011;54387;53.526;49.300;2022-08-20T06:42:58;6.43;;;2.80;;
67556;SDS011;54387;53.526;49.300;2022-08-20T06:45:30;6.78;;;2.25;;
67556;SDS011;54387;53.526;49.300;2022-08-20T06:48:04;6.63;;;2.58;;
67556;SDS011;54387;53.526;49.300;2022-08-20T06:50:42;5.10;;;2.10;;
67556;SDS011;54387;53.526;49.300;2022-08-20T06:53:16;8.43;;;2.95;;
67556;SDS011;54387;53.526;49.300;2022-08-20T06:55:52;7.18;;;2.70;;
67556;SDS011;54387;53.526;49.300;2022-08-20T06:58:25;6.45;;;2.67;;
67556;SDS011;54387;53.526;49.300;2022-08-20T07:00:56;5.47;;;2.78;;
67556;SDS011;54387;53.526;49.300;2022-08-20T07:03:29;7.97;;;2.83;;
67556;SDS011;54387;53.526;49.300;2022-08-20T07:06:01;5.20;;;2.88;;
67556;SDS011;54387;53.526;49.300;2022-08-20T07:08:33;5.35;;;2.65;;
67556;SDS011;54387;53.526;49.300;2022-08-20T07:11:05;7.72;;;2.63;;
67556;SDS011;54387;53.526;49.300;2022-08-20T07:13:36;5.07;;;2.60;;
67556;SDS011;54387;53.526;49.300;2022-08-20T07:16:08;7.32;;;2.65;;
67556;SDS011;54387;53.526;49.300;2022-08-20T07:18:39;13.85;;;4.47;;
67556;SDS011;54387;53.526;49.300;2022-08-20T07:21:11;7.97;;;3.28;;
67556;SDS011;54387;53.526;49.300;2022-08-20T07:23:42;8.68;;;3.20;;
67556;SDS011;54387;53.526;49.300;2022-08-20T07:26:14;8.57;;;3.60;;
67556;SDS011;54387;53.526;49.300;2022-08-20T07:28:47;6.10;;;2.75;;
67556;SDS011;54387;53.526;49.300;2022-08-20T07:31:19;7.95;;;3.35;;
67556;SDS011;54387;53.526;49.300;2022-08-20T07:34:09;7.57;;;3.30;;
67556;SDS011;54387;53.526;49.300;2022-08-20T07:36:41;8.20;;;3.35;;
67556;SDS011;54387;53.526;49.300;2022-08-20T07:39:13;6.78;;;2.80;;
67556;SDS011;54387;53.526;49.300;2022-08-20T07:41:45;9.80;;;3.13;;
67556;SDS011;54387;53.526;49.300;2022-08-20T07:44:32;6.10;;;2.42;;
67556;SDS011;54387;53.526;49.300;2022-08-20T07:47:03;5.53;;;2.33;;
67556;SDS011;54387;53.526;49.300;2022-08-20T07:49:36;5.03;;;2.22;;
67556;SDS011;54387;53.526;49.300;2022-08-20T07:52:08;9.00;;;2.95;;
67556;SDS011;54387;53.526;49.300;2022-08-20T07:54:40;9.02;;;3.17;;
67556;SDS011;54387;53.526;49.300;2022-08-20T07:57:13;6.57;;;2.90;;
67556;SDS011;54387;53.526;49.300;2022-08-20T07:59:47;3.95;;;2.47;;
67556;SDS011;54387;53.526;49.300;2022-08-20T08:02:18;8.63;;;2.78;;
67556;SDS011;54387;53.526;49.300;2022-08-20T08:04:50;7.25;;;3.22;;
67556;SDS011;54387;53.526;49.300;2022-08-20T08:07:22;5.88;;;2.10;;
67556;SDS011;54387;53.526;49.300;2022-08-20T08:09:55;6.68;;;2.33;;
67556;SDS011;54387;53.526;49.300;2022-08-20T08:12:31;4.95;;;2.10;;
67556;SDS011;54387;53.526;49.300;2022-08-20T08:15:07;7.70;;;2.55;;
67556;SDS011;54387;53.526;49.300;2022-08-20T08:17:43;7.00;;;2.80;;
67556;SDS011;54387;53.526;49.300;2022-08-20T08:20:16;8.60;;;2.60;;
67556;SDS011;54387;53.526;49.300;2022-08-20T08:22:48;6.50;;;2.92;;
67556;SDS011;54387;53.526;49.300;2022-08-20T08:25:21;7.13;;;2.60;;
67556;SDS011;54387;53.526;49.300;2022-08-20T08:27:52;6.10;;;3.00;;
67556;SDS011;54387;53.526;49.300;2022-08-20T08:30:24;5.60;;;3.10;;
67556;SDS011;54387;53.526;49.300;2022-08-20T08:32:56;10.57;;;2.97;;
67556;SDS011;54387;53.526;49.300;2022-08-20T08:35:48;4.53;;;2.50;;
67556;SDS011;54387;53.526;49.300;2022-08-20T08:38:19;6.28;;;2.20;;
67556;SDS011;54387;53.526;49.300;2022-08-20T08:40:56;4.60;;;2.40;;
67556;SDS011;54387;53.526;49.300;2022-08-20T08:46:02;5.15;;;2.78;;
67556;SDS011;54387;53.526;49.300;2022-08-20T08:48:37;11.57;;;3.03;;
67556;SDS011;54387;53.526;49.300;2022-08-20T08:51:17;6.50;;;2.63;;
67556;SDS011;54387;53.526;49.300;2022-08-20T08:54:13;8.00;;;3.00;;
67556;SDS011;54387;53.526;49.300;2022-08-20T08:56:51;8.88;;;2.70;;
67556;SDS011;54387;53.526;49.300;2022-08-20T08:59:23;7.95;;;3.22;;
67556;SDS011;54387;53.526;49.300;2022-08-20T09:01:59;10.85;;;3.58;;
67556;SDS011;54387;53.526;49.300;2022-08-20T09:04:36;5.13;;;2.95;;
67556;SDS011;54387;53.526;49.300;2022-08-20T09:07:11;6.88;;;2.50;;
67556;SDS011;54387;53.526;49.300;2022-08-20T09:09:45;4.28;;;2.10;;
67556;SDS011;54387;53.526;49.300;2022-08-20T09:12:18;7.88;;;2.92;;
67556;SDS011;54387;53.526;49.300;2022-08-20T09:14:53;5.60;;;2.50;;
67556;SDS011;54387;53.526;49.300;2022-08-20T09:17:24;8.52;;;2.63;;
67556;SDS011;54387;53.526;49.300;2022-08-20T09:19:56;12.27;;;3.10;;
67556;SDS011;54387;53.526;49.300;2022-08-20T09:22:27;7.47;;;3.28;;
67556;SDS011;54387;53.526;49.300;2022-08-20T09:25:00;5.40;;;2.80;;
67556;SDS011;54387;53.526;49.300;2022-08-20T09:27:33;7.50;;;2.38;;
67556;SDS011;54387;53.526;49.300;2022-08-20T09:30:05;6.32;;;3.05;;
67556;SDS011;54387;53.526;49.300;2022-08-20T09:32:37;4.82;;;2.33;;
67556;SDS011;54387;53.526;49.300;2022-08-20T09:35:08;6.53;;;3.08;;
67556;SDS011;54387;53.526;49.300;2022-08-20T09:37:41;5.35;;;2.53;;
67556;SDS011;54387;53.526;49.300;2022-08-20T09:40:13;5.00;;;2.60;;
67556;SDS011;54387;53.526;49.300;2022-08-20T09:42:45;8.05;;;2.83;;
67556;SDS011;54387;53.526;49.300;2022-08-20T09:45:17;4.97;;;2.30;;
67556;SDS011;54387;53.526;49.300;2022-08-20T09:47:48;5.70;;;2.17;;
67556;SDS011;54387;53.526;49.300;2022-08-20T09:50:20;4.50;;;2.47;;
67556;SDS011;54387;53.526;49.300;2022-08-20T09:52:52;5.95;;;2.58;;
67556;SDS011;54387;53.526;49.300;2022-08-20T09:55:35;8.45;;;3.05;;
67556;SDS011;54387;53.526;49.300;2022-08-20T09:58:17;4.30;;;2.67;;
67556;SDS011;54387;53.526;49.300;2022-08-20T10:01:09;3.65;;;2.50;;
67556;SDS011;54387;53.526;49.300;2022-08-20T10:03:45;6.25;;;3.28;;
67556;SDS011;54387;53.526;49.300;2022-08-20T10:06:19;9.98;;;3.08;;
67556;SDS011;54387;53.526;49.300;2022-08-20T10:08:50;5.55;;;2.90;;
67556;SDS011;54387;53.526;49.300;2022-08-20T10:11:22;9.77;;;4.60;;
67556;SDS011;54387;53.526;49.300;2022-08-20T10:13:53;7.18;;;3.63;;
67556;SDS011;54387;53.526;49.300;2022-08-20T10:16:25;4.70;;;3.50;;
67556;SDS011;54387;53.526;49.300;2022-08-20T10:18:56;3.78;;;2.88;;
67556;SDS011;54387;53.526;49.300;2022-08-20T10:21:28;3.33;;;2.58;;
67556;SDS011;54387;53.526;49.300;2022-08-20T10:24:00;5.75;;;2.45;;
67556;SDS011;54387;53.526;49.300;2022-08-20T10:26:32;6.70;;;3.10;;
67556;SDS011;54387;53.526;49.300;2022-08-20T10:29:03;5.90;;;3.55;;
67556;SDS011;54387;53.526;49.300;2022-08-20T10:31:35;6.45;;;3.60;;
67556;SDS011;54387;53.526;49.300;2022-08-20T10:34:07;5.00;;;3.10;;
67556;SDS011;54387;53.526;49.300;2022-08-20T10:36:42;4.28;;;3.20;;
67556;SDS011;54387;53.526;49.300;2022-08-20T10:39:14;4.60;;;3.10;;
67556;SDS011;54387;53.526;49.300;2022-08-20T10:41:46;5.55;;;3.88;;
67556;SDS011;54387;53.526;49.300;2022-08-20T10:44:18;4.45;;;3.00;;
67556;SDS011;54387;53.526;49.300;2022-08-20T10:46:49;10.73;;;3.10;;
67556;SDS011;54387;53.526;49.300;2022-08-20T10:49:20;4.90;;;2.95;;
67556;SDS011;54387;53.526;49.300;2022-08-20T10:51:52;4.60;;;3.20;;
67556;SDS011;54387;53.526;49.300;2022-08-20T10:54:23;4.13;;;3.10;;
67556;SDS011;54387;53.526;49.300;2022-08-20T10:56:59;3.10;;;2.90;;
67556;SDS011;54387;53.526;49.300;2022-08-20T10:59:33;4.53;;;2.85;;
67556;SDS011;54387;53.526;49.300;2022-08-20T11:02:08;8.02;;;4.63;;
67556;SDS011;54387;53.526;49.300;2022-08-20T11:04:39;8.35;;;4.53;;
67556;SDS011;54387;53.526;49.300;2022-08-20T11:07:13;3.60;;;3.25;;
67556;SDS011;54387;53.526;49.300;2022-08-20T11:09:49;4.18;;;3.47;;
67556;SDS011;54387;53.526;49.300;2022-08-20T11:12:21;4.95;;;2.95;;
67556;SDS011;54387;53.526;49.300;2022-08-20T11:14:53;2.95;;;2.70;;
67556;SDS011;54387;53.526;49.300;2022-08-20T11:17:26;3.15;;;2.55;;
67556;SDS011;54387;53.526;49.300;2022-08-20T11:19:59;3.00;;;2.70;;
67556;SDS011;54387;53.526;49.300;2022-08-20T11:22:32;4.07;;;2.50;;
67556;SDS011;54387;53.526;49.300;2022-08-20T11:25:05;8.23;;;6.15;;
67556;SDS011;54387;53.526;49.300;2022-08-20T11:27:39;6.55;;;4.88;;
67556;SDS011;54387;53.526;49.300;2022-08-20T11:30:15;6.65;;;4.38;;
67556;SDS011;54387;53.526;49.300;2022-08-20T11:32:49;7.53;;;4.32;;
67556;SDS011;54387;53.526;49.300;2022-08-20T11:35:21;5.47;;;4.50;;
67556;SDS011;54387;53.526;49.300;2022-08-20T11:37:54;6.70;;;5.07;;
67556;SDS011;54387;53.526;49.300;2022-08-20T11:40:26;8.18;;;5.47;;
67556;SDS011;54387;53.526;49.300;2022-08-20T11:42:59;8.85;;;5.45;;
67556;SDS011;54387;53.526;49.300;2022-08-20T11:45:30;9.13;;;5.55;;
67556;SDS011;54387;53.526;49.300;2022-08-20T11:48:02;9.10;;;6.22;;
67556;SDS011;54387;53.526;49.300;2022-08-20T11:50:34;7.68;;;5.00;;
67556;SDS011;54387;53.526;49.300;2022-08-20T11:53:05;6.65;;;5.18;;
67556;SDS011;54387;53.526;49.300;2022-08-20T11:55:37;8.02;;;3.70;;
67556;SDS011;54387;53.526;49.300;2022-08-20T11:58:09;9.35;;;5.93;;
67556;SDS011;54387;53.526;49.300;2022-08-20T12:00:41;7.10;;;3.53;;
67556;SDS011;54387;53.526;49.300;2022-08-20T12:03:12;4.85;;;3.13;;
67556;SDS011;54387;53.526;49.300;2022-08-20T12:05:44;5.13;;;2.95;;
67556;SDS011;54387;53.526;49.300;2022-08-20T12:08:16;4.18;;;3.10;;
67556;SDS011;54387;53.526;49.300;2022-08-20T12:10:48;7.22;;;2.70;;
67556;SDS011;54387;53.526;49.300;2022-08-20T12:13:19;4.90;;;2.40;;
67556;SDS011;54387;53.526;49.300;2022-08-20T12:15:52;6.15;;;2.40;;
67556;SDS011;54387;53.526;49.300;2022-08-20T12:20:55;7.13;;;3.17;;
67556;SDS011;54387;53.526;49.300;2022-08-20T12:23:27;9.73;;;2.80;;
67556;SDS011;54387;53.526;49.300;2022-08-20T12:25:58;7.60;;;2.70;;
67556;SDS011;54387;53.526;49.300;2022-08-20T12:28:32;6.30;;;2.55;;
67556;SDS011;54387;53.526;49.300;2022-08-20T12:31:04;8.63;;;3.00;;
67556;SDS011;54387;53.526;49.300;2022-08-20T12:33:36;6.15;;;2.78;;
67556;SDS011;54387;53.526;49.300;2022-08-20T12:36:07;5.85;;;2.80;;
67556;SDS011;54387;53.526;49.300;2022-08-20T12:38:39;6.50;;;2.53;;
67556;SDS011;54387;53.526;49.300;2022-08-20T12:41:10;5.22;;;2.25;;
67556;SDS011;54387;53.526;49.300;2022-08-20T12:43:42;5.45;;;2.38;;
67556;SDS011;54387;53.526;49.300;2022-08-20T12:46:13;5.30;;;2.28;;
67556;SDS011;54387;53.526;49.300;2022-08-20T12:48:45;3.95;;;2.03;;
67556;SDS011;54387;53.526;49.300;2022-08-20T12:51:16;5.50;;;2.65;;
67556;SDS011;54387;53.526;49.300;2022-08-20T12:53:48;5.53;;;2.45;;
67556;SDS011;54387;53.526;49.300;2022-08-20T12:56:19;4.50;;;2.40;;
67556;SDS011;54387;53.526;49.300;2022-08-20T12:58:51;5.28;;;2.85;;
67556;SDS011;54387;53.526;49.300;2022-08-20T13:01:22;4.15;;;3.00;;
67556;SDS011;54387;53.526;49.300;2022-08-20T13:03:54;5.45;;;2.90;;
67556;SDS011;54387;53.526;49.300;2022-08-20T13:06:25;3.60;;;2.80;;
67556;SDS011;54387;53.526;49.300;2022-08-20T13:08:56;5.80;;;3.43;;
67556;SDS011;54387;53.526;49.300;2022-08-20T13:11:28;4.93;;;3.20;;
67556;SDS011;54387;53.526;49.300;2022-08-20T13:13:59;4.78;;;2.95;;
67556;SDS011;54387;53.526;49.300;2022-08-20T13:16:31;5.43;;;2.60;;
67556;SDS011;54387;53.526;49.300;2022-08-20T13:19:03;4.60;;;2.60;;
67556;SDS011;54387;53.526;49.300;2022-08-20T13:21:34;4.68;;;2.60;;
67556;SDS011;54387;53.526;49.300;2022-08-20T13:26:39;3.97;;;2.28;;
67556;SDS011;54387;53.526;49.300;2022-08-20T13:29:10;5.03;;;2.60;;
67556;SDS011;54387;53.526;49.300;2022-08-20T13:31:43;4.13;;;2.80;;
67556;SDS011;54387;53.526;49.300;2022-08-20T13:36:46;5.53;;;2.40;;
67556;SDS011;54387;53.526;49.300;2022-08-20T13:39:17;6.15;;;2.88;;
67556;SDS011;54387;53.526;49.300;2022-08-20T13:41:49;4.53;;;2.60;;
67556;SDS011;54387;53.526;49.300;2022-08-20T13:44:20;7.93;;;2.80;;
67556;SDS011;54387;53.526;49.300;2022-08-20T13:46:52;4.63;;;2.67;;
67556;SDS011;54387;53.526;49.300;2022-08-20T13:49:24;6.00;;;3.63;;
67556;SDS011;54387;53.526;49.300;2022-08-20T13:51:55;4.03;;;2.40;;
67556;SDS011;54387;53.526;49.300;2022-08-20T13:54:27;6.63;;;2.65;;
67556;SDS011;54387;53.526;49.300;2022-08-20T13:57:05;5.45;;;2.90;;
67556;SDS011;54387;53.526;49.300;2022-08-20T13:59:40;8.32;;;2.85;;
67556;SDS011;54387;53.526;49.300;2022-08-20T14:02:13;4.10;;;2.58;;
67556;SDS011;54387;53.526;49.300;2022-08-20T14:04:46;5.38;;;2.53;;
67556;SDS011;54387;53.526;49.300;2022-08-20T14:07:21;4.18;;;3.10;;
67556;SDS011;54387;53.526;49.300;2022-08-20T14:09:57;5.68;;;2.70;;
67556;SDS011;54387;53.526;49.300;2022-08-20T14:12:34;7.70;;;2.85;;
67556;SDS011;54387;53.526;49.300;2022-08-20T14:15:06;5.60;;;2.45;;
67556;SDS011;54387;53.526;49.300;2022-08-20T14:17:39;3.83;;;2.33;;
67556;SDS011;54387;53.526;49.300;2022-08-20T14:20:14;4.63;;;2.45;;
67556;SDS011;54387;53.526;49.300;2022-08-20T14:22:47;6.53;;;2.75;;
67556;SDS011;54387;53.526;49.300;2022-08-20T14:25:19;4.35;;;2.65;;
67556;SDS011;54387;53.526;49.300;2022-08-20T14:30:28;6.80;;;2.85;;
67556;SDS011;54387;53.526;49.300;2022-08-20T14:33:00;6.93;;;3.20;;
67556;SDS011;54387;53.526;49.300;2022-08-20T14:35:31;4.38;;;2.67;;
67556;SDS011;54387;53.526;49.300;2022-08-20T14:38:03;7.45;;;2.80;;
67556;SDS011;54387;53.526;49.300;2022-08-20T14:40:35;7.70;;;2.88;;
67556;SDS011;54387;53.526;49.300;2022-08-20T14:43:07;7.00;;;2.17;;
67556;SDS011;54387;53.526;49.300;2022-08-20T14:45:38;4.38;;;2.28;;
67556;SDS011;54387;53.526;49.300;2022-08-20T14:48:10;6.70;;;2.50;;
67556;SDS011;54387;53.526;49.300;2022-08-20T14:50:41;3.90;;;2.83;;
67556;SDS011;54387;53.526;49.300;2022-08-20T14:53:13;7.00;;;2.67;;
67556;SDS011;54387;53.526;49.300;2022-08-20T14:55:45;4.45;;;2.70;;
67556;SDS011;54387;53.526;49.300;2022-08-20T14:58:16;11.52;;;3.25;;
67556;SDS011;54387;53.526;49.300;2022-08-20T15:00:48;5.82;;;2.80;;
67556;SDS011;54387;53.526;49.300;2022-08-20T15:03:19;8.55;;;3.05;;
67556;SDS011;54387;53.526;49.300;2022-08-20T15:05:53;9.95;;;2.97;;
67556;SDS011;54387;53.526;49.300;2022-08-20T15:08:25;7.15;;;3.35;;
67556;SDS011;54387;53.526;49.300;2022-08-20T15:10:56;7.55;;;3.03;;
67556;SDS011;54387;53.526;49.300;2022-08-20T15:13:28;11.95;;;4.00;;
67556;SDS011;54387;53.526;49.300;2022-08-20T15:16:00;8.43;;;3.22;;
67556;SDS011;54387;53.526;49.300;2022-08-20T15:18:32;8.30;;;3.20;;
67556;SDS011;54387;53.526;49.300;2022-08-20T15:21:04;8.65;;;3.20;;
67556;SDS011;54387;53.526;49.300;2022-08-20T15:23:35;10.80;;;2.95;;
67556;SDS011;54387;53.526;49.300;2022-08-20T15:26:07;10.93;;;3.60;;
67556;SDS011;54387;53.526;49.300;2022-08-20T15:28:38;11.38;;;3.30;;
67556;SDS011;54387;53.526;49.300;2022-08-20T15:31:11;11.63;;;3.40;;